sensor_id;sensor_type;location;lat;lon;timestamp;temperature;humidity
33139;DHT22;19501;50.948;5.316;2024-01-15T00:02:05;2.30;99.90
33139;DHT22;19501;50.948;5.316;2024-01-15T00:04:31;2.20;99.90
33139;DHT22;19501;50.948;5.316;2024-01-15T00:06:59;2.20;99.90
33139;DHT22;19501;50.948;5.316;2024-01-15T00:09:24;2.20;99.90
33139;DHT22;19501;50.948;5.316;2024-01-15T00:11:50;2.10;99.90
33139;DHT22;19501;50.948;5.316;2024-01-15T00:14:15;2.10;99.90
33139;DHT22;19501;50.948;5.316;2024-01-15T00:16:45;2.20;99.90
33139;DHT22;19501;50.948;5.316;2024-01-15T00:19:11;2.00;99.90
33139;DHT22;19501;50.948;5.316;2024-01-15T00:21:36;1.90;99.90
33139;DHT22;19501;50.948;5.316;2024-01-15T00:24:02;1.90;99.90
33139;DHT22;19501;50.948;5.316;2024-01-15T00:26:28;2.00;99.90
33139;DHT22;19501;50.948;5.316;2024-01-15T00:28:53;2.10;99.90
33139;DHT22;19501;50.948;5.316;2024-01-15T00:31:19;2.00;99.90
33139;DHT22;19501;50.948;5.316;2024-01-15T00:33:45;2.00;99.90
33139;DHT22;19501;50.948;5.316;2024-01-15T00:36:13;2.00;99.90
33139;DHT22;19501;50.948;5.316;2024-01-15T00:38:39;1.80;99.90
33139;DHT22;19501;50.948;5.316;2024-01-15T00:41:05;1.80;99.90
33139;DHT22;19501;50.948;5.316;2024-01-15T00:43:31;1.80;99.90
33139;DHT22;19501;50.948;5.316;2024-01-15T00:46:02;1.70;99.90
33139;DHT22;19501;50.948;5.316;2024-01-15T00:48:27;1.70;99.90
33139;DHT22;19501;50.948;5.316;2024-01-15T00:50:53;1.60;99.90
33139;DHT22;19501;50.948;5.316;2024-01-15T00:53:20;1.80;99.90
33139;DHT22;19501;50.948;5.316;2024-01-15T00:55:48;1.60;99.90
33139;DHT22;19501;50.948;5.316;2024-01-15T00:58:16;1.80;99.90
33139;DHT22;19501;50.948;5.316;2024-01-15T01:00:42;1.60;99.90
33139;DHT22;19501;50.948;5.316;2024-01-15T01:03:08;1.70;99.90
33139;DHT22;19501;50.948;5.316;2024-01-15T01:05:37;1.70;99.90
33139;DHT22;19501;50.948;5.316;2024-01-15T01:08:03;1.70;99.90
33139;DHT22;19501;50.948;5.316;2024-01-15T01:10:29;1.60;99.90
33139;DHT22;19501;50.948;5.316;2024-01-15T01:12:54;1.70;99.90
33139;DHT22;19501;50.948;5.316;2024-01-15T01:15:20;1.70;99.90
33139;DHT22;19501;50.948;5.316;2024-01-15T01:17:46;1.80;99.90
33139;DHT22;19501;50.948;5.316;2024-01-15T01:20:12;1.70;99.90
33139;DHT22;19501;50.948;5.316;2024-01-15T01:22:38;1.60;99.90
33139;DHT22;19501;50.948;5.316;2024-01-15T01:25:04;1.70;99.90
33139;DHT22;19501;50.948;5.316;2024-01-15T01:27:30;1.80;99.90
33139;DHT22;19501;50.948;5.316;2024-01-15T01:29:56;1.80;99.90
33139;DHT22;19501;50.948;5.316;2024-01-15T01:32:21;1.80;99.90
33139;DHT22;19501;50.948;5.316;2024-01-15T01:34:47;1.80;99.90
33139;DHT22;19501;50.948;5.316;2024-01-15T01:37:13;1.70;99.90
33139;DHT22;19501;50.948;5.316;2024-01-15T01:39:40;1.70;99.90
33139;DHT22;19501;50.948;5.316;2024-01-15T01:42:06;1.80;99.90
33139;DHT22;19501;50.948;5.316;2024-01-15T01:44:32;1.70;99.90
33139;DHT22;19501;50.948;5.316;2024-01-15T01:47:01;1.70;99.90
33139;DHT22;19501;50.948;5.316;2024-01-15T01:49:27;1.70;99.90
33139;DHT22;19501;50.948;5.316;2024-01-15T01:51:56;1.70;99.90
33139;DHT22;19501;50.948;5.316;2024-01-15T01:54:22;1.80;99.90
33139;DHT22;19501;50.948;5.316;2024-01-15T01:56:49;1.80;99.90
33139;DHT22;19501;50.948;5.316;2024-01-15T01:59:15;1.80;99.90
33139;DHT22;19501;50.948;5.316;2024-01-15T02:01:41;1.90;99.90
33139;DHT22;19501;50.948;5.316;2024-01-15T02:04:08;1.90;99.90
33139;DHT22;19501;50.948;5.316;2024-01-15T02:06:34;1.90;99.90
33139;DHT22;19501;50.948;5.316;2024-01-15T02:09:00;1.90;99.90
33139;DHT22;19501;50.948;5.316;2024-01-15T02:11:26;1.90;99.90
33139;DHT22;19501;50.948;5.316;2024-01-15T02:13:52;1.90;99.90
33139;DHT22;19501;50.948;5.316;2024-01-15T02:16:17;2.00;99.90
33139;DHT22;19501;50.948;5.316;2024-01-15T02:18:44;2.00;99.90
33139;DHT22;19501;50.948;5.316;2024-01-15T02:21:10;2.00;99.90
33139;DHT22;19501;50.948;5.316;2024-01-15T02:23:36;2.10;99.90
33139;DHT22;19501;50.948;5.316;2024-01-15T02:26:03;2.10;99.90
33139;DHT22;19501;50.948;5.316;2024-01-15T02:28:30;2.10;99.90
33139;DHT22;19501;50.948;5.316;2024-01-15T02:30:55;2.00;99.90
33139;DHT22;19501;50.948;5.316;2024-01-15T02:33:21;1.90;99.90
33139;DHT22;19501;50.948;5.316;2024-01-15T02:35:49;2.00;99.90
33139;DHT22;19501;50.948;5.316;2024-01-15T02:38:17;2.20;99.90
33139;DHT22;19501;50.948;5.316;2024-01-15T02:40:45;1.90;99.90
33139;DHT22;19501;50.948;5.316;2024-01-15T02:43:11;2.00;99.90
33139;DHT22;19501;50.948;5.316;2024-01-15T02:45:38;1.90;99.90
33139;DHT22;19501;50.948;5.316;2024-01-15T02:48:04;2.10;99.90
33139;DHT22;19501;50.948;5.316;2024-01-15T02:50:30;2.00;99.90
33139;DHT22;19501;50.948;5.316;2024-01-15T02:52:56;2.20;99.90
33139;DHT22;19501;50.948;5.316;2024-01-15T02:55:21;1.90;99.90
33139;DHT22;19501;50.948;5.316;2024-01-15T02:57:47;2.00;99.90
33139;DHT22;19501;50.948;5.316;2024-01-15T03:00:13;2.10;99.90
33139;DHT22;19501;50.948;5.316;2024-01-15T03:02:39;2.00;99.90
33139;DHT22;19501;50.948;5.316;2024-01-15T03:05:08;2.00;99.90
33139;DHT22;19501;50.948;5.316;2024-01-15T03:07:33;2.00;99.90
33139;DHT22;19501;50.948;5.316;2024-01-15T03:09:59;2.00;99.90
33139;DHT22;19501;50.948;5.316;2024-01-15T03:12:25;2.10;99.90
33139;DHT22;19501;50.948;5.316;2024-01-15T03:14:51;2.00;99.90
33139;DHT22;19501;50.948;5.316;2024-01-15T03:17:16;2.20;99.90
33139;DHT22;19501;50.948;5.316;2024-01-15T03:19:42;2.10;99.90
33139;DHT22;19501;50.948;5.316;2024-01-15T03:22:08;2.20;99.90
33139;DHT22;19501;50.948;5.316;2024-01-15T03:24:34;2.20;99.90
33139;DHT22;19501;50.948;5.316;2024-01-15T03:27:00;2.30;99.90
33139;DHT22;19501;50.948;5.316;2024-01-15T03:29:26;2.30;99.90
33139;DHT22;19501;50.948;5.316;2024-01-15T03:31:52;2.30;99.90
33139;DHT22;19501;50.948;5.316;2024-01-15T03:34:18;2.40;99.90
33139;DHT22;19501;50.948;5.316;2024-01-15T03:36:44;2.40;99.90
33139;DHT22;19501;50.948;5.316;2024-01-15T03:39:14;2.30;99.90
33139;DHT22;19501;50.948;5.316;2024-01-15T03:41:39;2.40;99.90
33139;DHT22;19501;50.948;5.316;2024-01-15T03:44:05;2.40;99.90
33139;DHT22;19501;50.948;5.316;2024-01-15T03:46:31;2.50;99.90
33139;DHT22;19501;50.948;5.316;2024-01-15T03:48:57;2.30;99.90
33139;DHT22;19501;50.948;5.316;2024-01-15T03:51:23;2.30;99.90
33139;DHT22;19501;50.948;5.316;2024-01-15T03:53:51;2.40;99.90
33139;DHT22;19501;50.948;5.316;2024-01-15T03:56:16;2.30;99.90
33139;DHT22;19501;50.948;5.316;2024-01-15T03:58:42;2.30;99.90
33139;DHT22;19501;50.948;5.316;2024-01-15T04:01:11;2.20;99.90
33139;DHT22;19501;50.948;5.316;2024-01-15T04:03:37;2.10;99.90
33139;DHT22;19501;50.948;5.316;2024-01-15T04:06:05;2.10;99.90
33139;DHT22;19501;50.948;5.316;2024-01-15T04:08:31;2.00;99.90
33139;DHT22;19501;50.948;5.316;2024-01-15T04:10:57;2.10;99.90
33139;DHT22;19501;50.948;5.316;2024-01-15T04:13:22;2.10;99.90
33139;DHT22;19501;50.948;5.316;2024-01-15T04:15:48;2.20;99.90
33139;DHT22;19501;50.948;5.316;2024-01-15T04:18:16;2.10;99.90
33139;DHT22;19501;50.948;5.316;2024-01-15T04:20:43;2.10;99.90
33139;DHT22;19501;50.948;5.316;2024-01-15T04:23:08;2.00;99.90
33139;DHT22;19501;50.948;5.316;2024-01-15T04:25:34;2.10;99.90
33139;DHT22;19501;50.948;5.316;2024-01-15T04:27:59;2.20;99.90
33139;DHT22;19501;50.948;5.316;2024-01-15T04:30:25;2.20;99.90
33139;DHT22;19501;50.948;5.316;2024-01-15T04:32:53;2.10;99.90
33139;DHT22;19501;50.948;5.316;2024-01-15T04:35:18;2.20;99.90
33139;DHT22;19501;50.948;5.316;2024-01-15T04:37:44;2.10;99.90
33139;DHT22;19501;50.948;5.316;2024-01-15T04:40:12;2.00;99.90
33139;DHT22;19501;50.948;5.316;2024-01-15T04:42:38;2.00;99.90
33139;DHT22;19501;50.948;5.316;2024-01-15T04:45:04;1.90;99.90
33139;DHT22;19501;50.948;5.316;2024-01-15T04:47:29;1.90;99.90
33139;DHT22;19501;50.948;5.316;2024-01-15T04:49:55;1.90;99.90
33139;DHT22;19501;50.948;5.316;2024-01-15T04:52:21;2.00;99.90
33139;DHT22;19501;50.948;5.316;2024-01-15T04:54:46;2.00;99.90
33139;DHT22;19501;50.948;5.316;2024-01-15T04:57:12;2.00;99.90
33139;DHT22;19501;50.948;5.316;2024-01-15T04:59:38;2.10;99.90
33139;DHT22;19501;50.948;5.316;2024-01-15T05:02:03;2.10;99.90
33139;DHT22;19501;50.948;5.316;2024-01-15T05:04:29;2.10;99.90
33139;DHT22;19501;50.948;5.316;2024-01-15T05:06:55;2.30;99.90
33139;DHT22;19501;50.948;5.316;2024-01-15T05:09:21;2.10;99.90
33139;DHT22;19501;50.948;5.316;2024-01-15T05:11:46;2.10;99.90
33139;DHT22;19501;50.948;5.316;2024-01-15T05:14:12;2.10;99.90
33139;DHT22;19501;50.948;5.316;2024-01-15T05:16:47;2.10;99.90
33139;DHT22;19501;50.948;5.316;2024-01-15T05:19:13;2.20;99.90
33139;DHT22;19501;50.948;5.316;2024-01-15T05:21:39;2.20;99.90
33139;DHT22;19501;50.948;5.316;2024-01-15T05:24:04;2.10;99.90
33139;DHT22;19501;50.948;5.316;2024-01-15T05:26:30;2.10;99.90
33139;DHT22;19501;50.948;5.316;2024-01-15T05:28:56;2.10;99.90
33139;DHT22;19501;50.948;5.316;2024-01-15T05:31:24;1.90;99.90
33139;DHT22;19501;50.948;5.316;2024-01-15T05:33:50;2.00;99.90
33139;DHT22;19501;50.948;5.316;2024-01-15T05:36:15;2.00;99.90
33139;DHT22;19501;50.948;5.316;2024-01-15T05:38:41;1.90;99.90
33139;DHT22;19501;50.948;5.316;2024-01-15T05:41:07;2.00;99.90
33139;DHT22;19501;50.948;5.316;2024-01-15T05:43:32;2.10;99.90
33139;DHT22;19501;50.948;5.316;2024-01-15T05:46:00;2.00;99.90
33139;DHT22;19501;50.948;5.316;2024-01-15T05:48:28;2.10;99.90
33139;DHT22;19501;50.948;5.316;2024-01-15T05:50:54;2.00;99.90
33139;DHT22;19501;50.948;5.316;2024-01-15T05:53:20;1.90;99.90
33139;DHT22;19501;50.948;5.316;2024-01-15T05:55:45;1.90;99.90
33139;DHT22;19501;50.948;5.316;2024-01-15T05:58:11;1.90;99.90
33139;DHT22;19501;50.948;5.316;2024-01-15T06:00:39;1.90;99.90
33139;DHT22;19501;50.948;5.316;2024-01-15T06:03:05;1.80;99.90
33139;DHT22;19501;50.948;5.316;2024-01-15T06:05:30;1.80;99.90
33139;DHT22;19501;50.948;5.316;2024-01-15T06:07:56;1.90;99.90
33139;DHT22;19501;50.948;5.316;2024-01-15T06:10:22;1.80;99.90
33139;DHT22;19501;50.948;5.316;2024-01-15T06:12:48;1.80;99.90
33139;DHT22;19501;50.948;5.316;2024-01-15T06:15:13;1.70;99.90
33139;DHT22;19501;50.948;5.316;2024-01-15T06:17:39;1.70;99.90
33139;DHT22;19501;50.948;5.316;2024-01-15T06:20:05;1.70;99.90
33139;DHT22;19501;50.948;5.316;2024-01-15T06:22:31;1.70;99.90
33139;DHT22;19501;50.948;5.316;2024-01-15T06:24:57;1.70;99.90
33139;DHT22;19501;50.948;5.316;2024-01-15T06:27:23;1.60;99.90
33139;DHT22;19501;50.948;5.316;2024-01-15T06:29:49;1.60;99.90
33139;DHT22;19501;50.948;5.316;2024-01-15T06:32:14;1.70;99.90
33139;DHT22;19501;50.948;5.316;2024-01-15T06:34:40;1.50;99.90
33139;DHT22;19501;50.948;5.316;2024-01-15T06:37:06;1.50;99.90
33139;DHT22;19501;50.948;5.316;2024-01-15T06:39:32;1.60;99.90
33139;DHT22;19501;50.948;5.316;2024-01-15T06:41:57;1.50;99.90
33139;DHT22;19501;50.948;5.316;2024-01-15T06:44:23;1.60;99.90
33139;DHT22;19501;50.948;5.316;2024-01-15T06:46:48;1.50;99.90
33139;DHT22;19501;50.948;5.316;2024-01-15T06:49:14;1.50;99.90
33139;DHT22;19501;50.948;5.316;2024-01-15T06:51:40;1.50;99.90
33139;DHT22;19501;50.948;5.316;2024-01-15T06:54:07;1.60;99.90
33139;DHT22;19501;50.948;5.316;2024-01-15T06:56:32;1.70;99.90
33139;DHT22;19501;50.948;5.316;2024-01-15T06:58:58;1.60;99.90
33139;DHT22;19501;50.948;5.316;2024-01-15T07:01:24;1.60;99.90
33139;DHT22;19501;50.948;5.316;2024-01-15T07:03:49;1.80;99.90
33139;DHT22;19501;50.948;5.316;2024-01-15T07:06:15;1.80;99.90
33139;DHT22;19501;50.948;5.316;2024-01-15T07:08:42;1.90;99.90
33139;DHT22;19501;50.948;5.316;2024-01-15T07:11:08;1.80;99.90
33139;DHT22;19501;50.948;5.316;2024-01-15T07:13:34;1.80;99.90
33139;DHT22;19501;50.948;5.316;2024-01-15T07:16:01;1.90;99.90
33139;DHT22;19501;50.948;5.316;2024-01-15T07:18:27;1.90;99.90
33139;DHT22;19501;50.948;5.316;2024-01-15T07:20:52;1.90;99.90
33139;DHT22;19501;50.948;5.316;2024-01-15T07:23:18;1.90;99.90
33139;DHT22;19501;50.948;5.316;2024-01-15T07:25:43;1.90;99.90
33139;DHT22;19501;50.948;5.316;2024-01-15T07:28:09;2.00;99.90
33139;DHT22;19501;50.948;5.316;2024-01-15T07:30:35;2.00;99.90
33139;DHT22;19501;50.948;5.316;2024-01-15T07:33:01;2.00;99.90
33139;DHT22;19501;50.948;5.316;2024-01-15T07:35:26;2.00;99.90
33139;DHT22;19501;50.948;5.316;2024-01-15T07:37:52;2.00;99.90
33139;DHT22;19501;50.948;5.316;2024-01-15T07:40:18;1.90;99.90
33139;DHT22;19501;50.948;5.316;2024-01-15T07:42:43;2.00;99.90
33139;DHT22;19501;50.948;5.316;2024-01-15T07:45:10;2.00;99.90
33139;DHT22;19501;50.948;5.316;2024-01-15T07:47:36;2.10;99.90
33139;DHT22;19501;50.948;5.316;2024-01-15T07:50:02;2.20;99.90
33139;DHT22;19501;50.948;5.316;2024-01-15T07:52:30;2.20;99.90
33139;DHT22;19501;50.948;5.316;2024-01-15T07:54:56;2.10;99.90
33139;DHT22;19501;50.948;5.316;2024-01-15T07:57:22;2.20;99.90
33139;DHT22;19501;50.948;5.316;2024-01-15T07:59:48;2.30;99.90
33139;DHT22;19501;50.948;5.316;2024-01-15T08:02:13;2.20;99.90
33139;DHT22;19501;50.948;5.316;2024-01-15T08:04:39;2.20;99.90
33139;DHT22;19501;50.948;5.316;2024-01-15T08:07:05;2.20;99.90
33139;DHT22;19501;50.948;5.316;2024-01-15T08:09:32;2.30;99.90
33139;DHT22;19501;50.948;5.316;2024-01-15T08:11:58;2.50;99.90
33139;DHT22;19501;50.948;5.316;2024-01-15T08:14:24;2.40;99.90
33139;DHT22;19501;50.948;5.316;2024-01-15T08:16:49;2.30;99.90
33139;DHT22;19501;50.948;5.316;2024-01-15T08:19:16;2.30;99.90
33139;DHT22;19501;50.948;5.316;2024-01-15T08:21:44;2.40;99.90
33139;DHT22;19501;50.948;5.316;2024-01-15T08:24:09;2.30;99.90
33139;DHT22;19501;50.948;5.316;2024-01-15T08:26:35;2.30;99.90
33139;DHT22;19501;50.948;5.316;2024-01-15T08:29:03;2.50;99.90
33139;DHT22;19501;50.948;5.316;2024-01-15T08:31:29;2.30;99.90
33139;DHT22;19501;50.948;5.316;2024-01-15T08:33:54;2.40;99.90
33139;DHT22;19501;50.948;5.316;2024-01-15T08:36:23;2.40;99.90
33139;DHT22;19501;50.948;5.316;2024-01-15T08:38:52;2.40;99.90
33139;DHT22;19501;50.948;5.316;2024-01-15T08:41:17;2.50;99.90
33139;DHT22;19501;50.948;5.316;2024-01-15T08:43:43;2.40;99.90
33139;DHT22;19501;50.948;5.316;2024-01-15T08:46:11;2.40;99.90
33139;DHT22;19501;50.948;5.316;2024-01-15T08:48:37;2.40;99.90
33139;DHT22;19501;50.948;5.316;2024-01-15T08:51:02;2.20;99.90
33139;DHT22;19501;50.948;5.316;2024-01-15T08:53:28;2.20;99.90
33139;DHT22;19501;50.948;5.316;2024-01-15T08:55:54;2.20;99.90
33139;DHT22;19501;50.948;5.316;2024-01-15T08:58:19;2.30;99.90
33139;DHT22;19501;50.948;5.316;2024-01-15T09:00:45;2.10;99.90
33139;DHT22;19501;50.948;5.316;2024-01-15T09:03:11;2.20;99.90
33139;DHT22;19501;50.948;5.316;2024-01-15T09:05:37;2.10;99.90
33139;DHT22;19501;50.948;5.316;2024-01-15T09:08:03;2.00;99.90
33139;DHT22;19501;50.948;5.316;2024-01-15T09:10:29;1.80;99.90
33139;DHT22;19501;50.948;5.316;2024-01-15T09:12:55;1.70;99.90
33139;DHT22;19501;50.948;5.316;2024-01-15T09:15:21;1.80;99.90
33139;DHT22;19501;50.948;5.316;2024-01-15T09:17:46;1.80;99.90
33139;DHT22;19501;50.948;5.316;2024-01-15T09:20:12;1.80;99.90
33139;DHT22;19501;50.948;5.316;2024-01-15T09:22:40;1.70;99.90
33139;DHT22;19501;50.948;5.316;2024-01-15T09:25:08;1.90;99.90
33139;DHT22;19501;50.948;5.316;2024-01-15T09:27:37;1.80;99.90
33139;DHT22;19501;50.948;5.316;2024-01-15T09:30:04;1.90;99.90
33139;DHT22;19501;50.948;5.316;2024-01-15T09:32:30;1.90;99.90
33139;DHT22;19501;50.948;5.316;2024-01-15T09:34:56;1.90;99.90
33139;DHT22;19501;50.948;5.316;2024-01-15T09:37:21;2.00;99.90
33139;DHT22;19501;50.948;5.316;2024-01-15T09:39:47;2.10;99.90
33139;DHT22;19501;50.948;5.316;2024-01-15T09:42:14;2.30;99.90
33139;DHT22;19501;50.948;5.316;2024-01-15T09:44:40;2.20;99.90
33139;DHT22;19501;50.948;5.316;2024-01-15T09:47:06;2.20;99.90
33139;DHT22;19501;50.948;5.316;2024-01-15T09:49:33;2.30;99.90
33139;DHT22;19501;50.948;5.316;2024-01-15T09:51:58;2.40;99.90
33139;DHT22;19501;50.948;5.316;2024-01-15T09:54:25;2.40;99.90
33139;DHT22;19501;50.948;5.316;2024-01-15T09:56:50;2.40;99.90
33139;DHT22;19501;50.948;5.316;2024-01-15T09:59:20;2.40;99.90
33139;DHT22;19501;50.948;5.316;2024-01-15T10:01:50;2.50;99.90
33139;DHT22;19501;50.948;5.316;2024-01-15T10:04:16;2.50;99.90
33139;DHT22;19501;50.948;5.316;2024-01-15T10:06:45;2.60;99.90
33139;DHT22;19501;50.948;5.316;2024-01-15T10:09:12;2.60;99.90
33139;DHT22;19501;50.948;5.316;2024-01-15T10:11:43;2.70;99.90
33139;DHT22;19501;50.948;5.316;2024-01-15T10:14:12;2.70;99.90
33139;DHT22;19501;50.948;5.316;2024-01-15T10:16:39;2.70;99.90
33139;DHT22;19501;50.948;5.316;2024-01-15T10:19:07;2.80;99.90
33139;DHT22;19501;50.948;5.316;2024-01-15T10:21:33;2.80;99.90
33139;DHT22;19501;50.948;5.316;2024-01-15T10:24:03;2.80;99.90
33139;DHT22;19501;50.948;5.316;2024-01-15T10:26:29;2.90;99.90
33139;DHT22;19501;50.948;5.316;2024-01-15T10:28:56;2.90;99.90
33139;DHT22;19501;50.948;5.316;2024-01-15T10:31:21;2.90;99.90
33139;DHT22;19501;50.948;5.316;2024-01-15T10:33:51;3.00;99.90
33139;DHT22;19501;50.948;5.316;2024-01-15T10:36:17;3.00;99.90
33139;DHT22;19501;50.948;5.316;2024-01-15T10:38:43;3.00;99.90
33139;DHT22;19501;50.948;5.316;2024-01-15T10:41:09;3.10;99.90
33139;DHT22;19501;50.948;5.316;2024-01-15T10:43:35;3.00;99.90
33139;DHT22;19501;50.948;5.316;2024-01-15T10:46:01;3.00;99.90
33139;DHT22;19501;50.948;5.316;2024-01-15T10:48:28;3.10;99.90
33139;DHT22;19501;50.948;5.316;2024-01-15T10:50:58;3.00;99.90
33139;DHT22;19501;50.948;5.316;2024-01-15T10:53:24;3.10;99.90
33139;DHT22;19501;50.948;5.316;2024-01-15T10:55:54;3.20;99.90
33139;DHT22;19501;50.948;5.316;2024-01-15T10:58:21;3.30;99.90
33139;DHT22;19501;50.948;5.316;2024-01-15T11:00:49;3.40;99.90
33139;DHT22;19501;50.948;5.316;2024-01-15T11:03:16;3.50;99.90
33139;DHT22;19501;50.948;5.316;2024-01-15T11:05:44;3.70;99.90
33139;DHT22;19501;50.948;5.316;2024-01-15T11:08:10;3.80;99.90
33139;DHT22;19501;50.948;5.316;2024-01-15T11:13:21;4.10;99.90
33139;DHT22;19501;50.948;5.316;2024-01-15T11:16:03;4.30;99.90
33139;DHT22;19501;50.948;5.316;2024-01-15T11:18:30;4.40;99.90
33139;DHT22;19501;50.948;5.316;2024-01-15T11:28:56;3.80;99.90
33139;DHT22;19501;50.948;5.316;2024-01-15T11:34:10;3.70;99.90
33139;DHT22;19501;50.948;5.316;2024-01-15T11:42:02;3.00;99.90
33139;DHT22;19501;50.948;5.316;2024-01-15T11:44:31;2.60;99.90
33139;DHT22;19501;50.948;5.316;2024-01-15T11:47:03;2.20;99.90
33139;DHT22;19501;50.948;5.316;2024-01-15T11:52:18;1.80;99.90
33139;DHT22;19501;50.948;5.316;2024-01-15T11:57:25;1.90;99.90
33139;DHT22;19501;50.948;5.316;2024-01-15T11:59:54;1.90;99.90
33139;DHT22;19501;50.948;5.316;2024-01-15T12:02:20;2.00;99.90
33139;DHT22;19501;50.948;5.316;2024-01-15T12:04:47;1.90;99.90
33139;DHT22;19501;50.948;5.316;2024-01-15T12:07:13;1.70;99.90
33139;DHT22;19501;50.948;5.316;2024-01-15T12:09:43;1.70;99.90
33139;DHT22;19501;50.948;5.316;2024-01-15T12:12:16;1.70;99.90
33139;DHT22;19501;50.948;5.316;2024-01-15T12:14:45;1.70;99.90
33139;DHT22;19501;50.948;5.316;2024-01-15T12:17:11;2.00;99.90
33139;DHT22;19501;50.948;5.316;2024-01-15T12:19:37;1.90;99.90
33139;DHT22;19501;50.948;5.316;2024-01-15T12:22:03;1.90;99.90
33139;DHT22;19501;50.948;5.316;2024-01-15T12:24:29;1.80;99.90
33139;DHT22;19501;50.948;5.316;2024-01-15T12:26:54;1.90;99.90
33139;DHT22;19501;50.948;5.316;2024-01-15T12:29:20;1.80;99.90
33139;DHT22;19501;50.948;5.316;2024-01-15T12:31:50;1.70;99.90
33139;DHT22;19501;50.948;5.316;2024-01-15T12:34:17;1.60;99.90
33139;DHT22;19501;50.948;5.316;2024-01-15T12:36:42;1.60;99.90
33139;DHT22;19501;50.948;5.316;2024-01-15T12:39:11;1.80;99.90
33139;DHT22;19501;50.948;5.316;2024-01-15T12:41:38;1.90;99.90
33139;DHT22;19501;50.948;5.316;2024-01-15T12:44:04;2.00;99.90
33139;DHT22;19501;50.948;5.316;2024-01-15T12:46:30;2.10;99.90
33139;DHT22;19501;50.948;5.316;2024-01-15T12:48:56;2.10;99.90
33139;DHT22;19501;50.948;5.316;2024-01-15T12:51:25;2.10;99.90
33139;DHT22;19501;50.948;5.316;2024-01-15T12:53:52;2.10;99.90
33139;DHT22;19501;50.948;5.316;2024-01-15T12:56:18;2.30;99.90
33139;DHT22;19501;50.948;5.316;2024-01-15T12:58:44;2.30;99.90
33139;DHT22;19501;50.948;5.316;2024-01-15T13:01:09;2.30;99.90
33139;DHT22;19501;50.948;5.316;2024-01-15T13:03:35;2.40;99.90
33139;DHT22;19501;50.948;5.316;2024-01-15T13:06:01;2.30;99.90
33139;DHT22;19501;50.948;5.316;2024-01-15T13:08:27;2.30;99.90
33139;DHT22;19501;50.948;5.316;2024-01-15T13:10:55;2.30;99.90
33139;DHT22;19501;50.948;5.316;2024-01-15T13:13:22;2.30;99.90
33139;DHT22;19501;50.948;5.316;2024-01-15T13:15:48;2.30;99.90
33139;DHT22;19501;50.948;5.316;2024-01-15T13:18:13;2.30;99.90
33139;DHT22;19501;50.948;5.316;2024-01-15T13:20:39;2.30;99.90
33139;DHT22;19501;50.948;5.316;2024-01-15T13:23:05;2.30;99.90
33139;DHT22;19501;50.948;5.316;2024-01-15T13:25:31;2.40;99.90
33139;DHT22;19501;50.948;5.316;2024-01-15T13:27:57;2.50;99.90
33139;DHT22;19501;50.948;5.316;2024-01-15T13:30:23;2.50;99.90
33139;DHT22;19501;50.948;5.316;2024-01-15T13:32:49;2.40;99.90
33139;DHT22;19501;50.948;5.316;2024-01-15T13:35:14;2.50;99.90
33139;DHT22;19501;50.948;5.316;2024-01-15T13:37:40;2.40;99.90
33139;DHT22;19501;50.948;5.316;2024-01-15T13:40:07;2.50;99.90
33139;DHT22;19501;50.948;5.316;2024-01-15T13:42:35;2.50;99.90
33139;DHT22;19501;50.948;5.316;2024-01-15T13:45:05;2.50;99.90
33139;DHT22;19501;50.948;5.316;2024-01-15T13:47:31;2.50;99.90
33139;DHT22;19501;50.948;5.316;2024-01-15T13:49:57;2.50;99.90
33139;DHT22;19501;50.948;5.316;2024-01-15T13:52:23;2.50;99.90
33139;DHT22;19501;50.948;5.316;2024-01-15T13:54:49;2.50;99.90
33139;DHT22;19501;50.948;5.316;2024-01-15T13:57:15;2.40;99.90
33139;DHT22;19501;50.948;5.316;2024-01-15T13:59:43;2.40;99.90
33139;DHT22;19501;50.948;5.316;2024-01-15T14:02:08;2.40;99.90
33139;DHT22;19501;50.948;5.316;2024-01-15T14:04:35;2.40;99.90
33139;DHT22;19501;50.948;5.316;2024-01-15T14:07:00;2.30;99.90
33139;DHT22;19501;50.948;5.316;2024-01-15T14:09:26;2.30;99.90
33139;DHT22;19501;50.948;5.316;2024-01-15T14:11:52;2.40;99.90
33139;DHT22;19501;50.948;5.316;2024-01-15T14:14:17;2.30;99.90
33139;DHT22;19501;50.948;5.316;2024-01-15T14:16:43;2.40;99.90
33139;DHT22;19501;50.948;5.316;2024-01-15T14:19:09;2.50;99.90
33139;DHT22;19501;50.948;5.316;2024-01-15T14:21:35;2.40;99.90
33139;DHT22;19501;50.948;5.316;2024-01-15T14:24:01;2.50;99.90
33139;DHT22;19501;50.948;5.316;2024-01-15T14:26:26;2.50;99.90
33139;DHT22;19501;50.948;5.316;2024-01-15T14:28:53;2.40;99.90
33139;DHT22;19501;50.948;5.316;2024-01-15T14:31:20;2.50;99.90
33139;DHT22;19501;50.948;5.316;2024-01-15T14:33:45;2.40;99.90
33139;DHT22;19501;50.948;5.316;2024-01-15T14:36:14;2.30;99.90
33139;DHT22;19501;50.948;5.316;2024-01-15T14:38:39;2.20;99.90
33139;DHT22;19501;50.948;5.316;2024-01-15T14:41:05;2.30;99.90
33139;DHT22;19501;50.948;5.316;2024-01-15T14:43:30;2.30;99.90
33139;DHT22;19501;50.948;5.316;2024-01-15T14:45:58;2.20;99.90
33139;DHT22;19501;50.948;5.316;2024-01-15T14:48:24;2.20;99.90
33139;DHT22;19501;50.948;5.316;2024-01-15T14:50:52;2.20;99.90
33139;DHT22;19501;50.948;5.316;2024-01-15T14:53:18;2.30;99.90
33139;DHT22;19501;50.948;5.316;2024-01-15T14:55:43;2.30;99.90
33139;DHT22;19501;50.948;5.316;2024-01-15T14:58:09;2.20;99.90
33139;DHT22;19501;50.948;5.316;2024-01-15T15:00:35;2.30;99.90
33139;DHT22;19501;50.948;5.316;2024-01-15T15:03:00;2.40;99.90
33139;DHT22;19501;50.948;5.316;2024-01-15T15:05:26;2.50;99.90
33139;DHT22;19501;50.948;5.316;2024-01-15T15:07:51;2.50;99.90
33139;DHT22;19501;50.948;5.316;2024-01-15T15:10:17;2.60;99.90
33139;DHT22;19501;50.948;5.316;2024-01-15T15:12:43;2.50;99.90
33139;DHT22;19501;50.948;5.316;2024-01-15T15:15:09;2.50;99.90
33139;DHT22;19501;50.948;5.316;2024-01-15T15:17:37;2.50;99.90
33139;DHT22;19501;50.948;5.316;2024-01-15T15:20:04;2.50;99.90
33139;DHT22;19501;50.948;5.316;2024-01-15T15:22:30;2.50;99.90
33139;DHT22;19501;50.948;5.316;2024-01-15T15:24:58;2.40;99.90
33139;DHT22;19501;50.948;5.316;2024-01-15T15:27:24;2.50;99.90
33139;DHT22;19501;50.948;5.316;2024-01-15T15:29:50;2.40;99.90
33139;DHT22;19501;50.948;5.316;2024-01-15T15:32:16;2.50;99.90
33139;DHT22;19501;50.948;5.316;2024-01-15T15:34:41;2.30;99.90
33139;DHT22;19501;50.948;5.316;2024-01-15T15:37:07;2.10;99.90
33139;DHT22;19501;50.948;5.316;2024-01-15T15:39:33;2.00;99.90
33139;DHT22;19501;50.948;5.316;2024-01-15T15:41:58;2.00;99.90
33139;DHT22;19501;50.948;5.316;2024-01-15T15:44:24;1.90;99.90
33139;DHT22;19501;50.948;5.316;2024-01-15T15:46:50;1.90;99.90
33139;DHT22;19501;50.948;5.316;2024-01-15T15:49:15;2.00;99.90
33139;DHT22;19501;50.948;5.316;2024-01-15T15:51:41;2.00;99.90
33139;DHT22;19501;50.948;5.316;2024-01-15T15:54:07;2.00;99.90
33139;DHT22;19501;50.948;5.316;2024-01-15T15:56:33;2.00;99.90
33139;DHT22;19501;50.948;5.316;2024-01-15T15:59:04;2.00;99.90
33139;DHT22;19501;50.948;5.316;2024-01-15T16:01:31;1.90;99.90
33139;DHT22;19501;50.948;5.316;2024-01-15T16:03:58;1.80;99.90